Latest Weather Observations for Coondewanna

IDW60801

Issued at 5:05 pm WST Thursday 23 October 2014 (issued every 30 minutes, with the page automatically refreshed every 10 minutes)

About weather observations | Map of weather stations | Latest weather observations for WA | Other Formats
Station Details ID: 505051 Name: COONDEWANNA Lat: -22.96 Lon: 118.81 Height: 697.63 m
Data from the previous 72 hours. | See also: Recent months for locations in Western Australia
Date/Time
WST
Temp
°C
App
Temp
°C
Dew
Point
Rel
Hum
%
Delta-T
°C
Wind Press
QNH
hPa
Press
MSL
hPa
Rain
since 9 am
mm
Dir
 
Spd
km/h
Gust
km/h
Spd
kts
Gust
kts
23/05:00pm 34.2 28.7 3.9 15 16.4 SW 22 30 12 16 1014.3 1009.6 -
23/04:30pm 34.6 29.5 4.2 15 16.5 WSW 20 28 11 15 1014.4 1009.7 -
23/04:00pm 34.8 30.1 3.4 14 16.9 WSW 17 22 9 12 1014.3 1009.6 -
23/03:30pm 34.4 29.1 3.1 14 16.7 SSW 20 28 11 15 1014.4 1009.7 -
23/03:00pm 34.4 30.1 3.1 14 16.7 S 15 20 8 11 1014.5 1009.8 -
23/02:30pm 34.7 29.1 3.3 14 16.8 W 22 35 12 19 1014.7 1010.0 -
23/02:00pm 34.4 28.5 4.0 15 16.4 WSW 24 35 13 19 1014.9 1010.2 -
23/01:30pm 34.6 29.7 4.2 15 16.5 W 19 30 10 16 1015.0 1010.3 -
23/01:00pm 34.7 29.5 3.3 14 16.8 WSW 20 30 11 16 1015.3 1010.5 -
23/12:30pm 34.9 31.0 5.4 16 16.4 WSW 15 32 8 17 1015.7 1011.0 -
23/12:00pm 34.0 28.4 3.7 15 16.3 - 22 28 12 15 1016.1 1011.4 -
23/11:30am 32.5 28.5 5.1 18 14.9 SSW 15 24 8 13 1016.5 1011.8 -
23/11:00am 32.2 29.4 7.1 21 14.1 SW 11 17 6 9 1017.0 1012.3 -
23/10:30am 31.0 27.0 6.8 22 13.5 SSW 17 30 9 16 1017.4 1012.7 -
23/10:00am 29.9 26.0 7.2 24 12.6 S 17 24 9 13 1017.7 1013.0 -
23/09:00am 28.4 24.7 8.1 28 11.4 SSW 17 24 9 13 1017.7 1013.0 0.0
23/08:30am 27.4 23.4 8.3 30 10.7 SSW 19 24 10 13 1017.8 1013.1 0.0
23/08:00am 26.8 23.2 8.3 31 10.3 SSW 17 24 9 13 1017.7 1013.0 0.0
23/07:30am 26.2 22.3 7.3 30 10.3 S 17 24 9 13 1017.6 1012.9 0.0
23/07:00am 24.8 21.3 7.0 32 9.6 SSW 15 19 8 10 1017.3 1012.6 0.0
23/06:30am 23.5 20.6 6.7 34 9.0 SSW 11 13 6 7 1017.3 1012.6 0.0
23/06:00am 22.9 20.8 6.6 35 8.6 WSW 7 11 4 6 1017.1 1012.4 0.0
23/05:30am 23.8 20.5 6.6 33 9.2 SW 13 19 7 10 1016.8 1012.1 0.0
23/05:00am 23.9 20.6 6.2 32 9.4 SW 13 19 7 10 1016.4 1011.7 0.0
23/04:30am 24.0 20.6 5.8 31 9.6 WSW 13 15 7 8 1016.0 1011.3 0.0
23/04:00am 24.2 21.6 6.0 31 9.6 SW 9 11 5 6 1016.0 1011.3 0.0
23/03:30am 24.6 21.2 5.9 30 9.9 SW 13 19 7 10 1016.0 1011.3 0.0
23/03:00am 24.8 21.0 5.6 29 10.1 SW 15 20 8 11 1016.1 1011.4 0.0
23/02:30am 25.2 20.4 5.4 28 10.4 SW 20 24 11 13 1015.9 1011.2 0.0
23/02:00am 24.5 19.7 4.8 28 10.2 SW 19 22 10 12 1016.1 1011.4 0.0
23/01:30am 23.9 19.7 3.8 27 10.2 SW 15 17 8 9 1016.7 1012.0 0.0
23/01:00am 24.0 20.5 3.3 26 10.4 SW 11 13 6 7 1017.2 1012.5 0.0
23/12:30am 23.9 21.6 2.7 25 10.5 SW 4 7 2 4 1017.3 1012.6 0.0
23/12:00am 24.5 21.7 3.2 25 10.7 WSW 7 11 4 6 1017.7 1013.0 0.0
 
Date/Time
WST
Temp
°C
App
Temp
°C
Dew
Point
Rel
Hum
%
Delta-T
°C
Wind Press
QNH
hPa
Press
MSL
hPa
Rain
since 9 am
mm
Dir
 
Spd
km/h
Gust
km/h
Spd
kts
Gust
kts
22/11:30pm 24.7 21.1 2.8 24 11.0 WSW 11 13 6 7 1017.9 1013.3 0.0
22/11:00pm 24.6 21.0 2.7 24 10.9 WSW 11 13 6 7 1018.1 1013.5 0.0
22/10:30pm 24.9 22.0 1.7 22 11.4 S 6 7 3 4 1018.4 1013.7 0.0
22/10:00pm 26.2 24.2 2.2 21 12.0 S 2 7 1 4 1018.6 1013.9 0.0
22/09:30pm 26.4 24.0 2.3 21 12.1 S 4 7 2 4 1018.8 1014.1 0.0
22/09:00pm 28.2 24.5 2.4 19 13.1 S 11 13 6 7 1018.6 1013.9 0.0
22/08:30pm 29.5 25.3 1.9 17 14.0 SW 13 17 7 9 1018.3 1013.6 0.0
22/08:00pm 30.2 25.2 1.6 16 14.5 SSW 17 24 9 13 1017.9 1013.3 0.0
22/07:30pm 30.8 26.1 -1.9 12 15.7 SSW 13 15 7 8 1017.7 1013.0 0.0
22/07:00pm 31.7 27.8 -1.2 12 16.1 ESE 9 15 5 8 1017.3 1012.6 0.0
22/06:30pm 31.7 27.8 -1.2 12 16.1 SE 9 13 5 7 1016.9 1012.2 0.0
22/06:00pm 32.5 28.2 -1.7 11 16.7 SE 11 15 6 8 1016.7 1012.0 0.0
22/05:30pm 33.9 29.2 -2.0 10 17.6 SSW 13 19 7 10 1016.2 1011.5 0.0
22/05:00pm 33.7 29.7 -2.1 10 17.5 SW 9 17 5 9 1016.0 1011.3 0.0
22/04:30pm 34.1 29.0 -1.8 10 17.7 W 15 20 8 11 1016.0 1011.3 0.0
22/04:00pm 34.2 30.3 -1.7 10 17.7 WNW 9 13 5 7 1015.9 1011.2 0.0
22/03:30pm 34.7 30.1 -1.4 10 18.0 W 13 19 7 10 1016.0 1011.3 0.0
22/03:00pm 34.9 30.9 -2.6 9 18.3 NW 9 19 5 10 1016.1 1011.4 0.0
22/02:30pm 35.3 31.3 -2.3 9 18.5 NW 9 19 5 10 1016.3 1011.6 0.0
22/02:00pm 34.4 29.7 -1.6 10 17.8 SSE 13 26 7 14 1016.5 1011.8 0.0
22/01:30pm 33.9 29.6 -2.0 10 17.6 NNW 11 17 6 9 1017.2 1012.5 0.0
22/01:00pm 34.5 29.1 -1.5 10 17.8 WSW 17 26 9 14 1017.5 1012.8 0.0
22/12:30pm 34.0 28.1 -1.9 10 17.6 W 19 22 10 12 1017.9 1013.3 0.0
22/12:00pm 33.3 28.1 -2.4 10 17.3 SSW 15 26 8 14 1018.4 1013.7 0.0
22/11:30am 33.7 29.0 -2.1 10 17.5 SW 13 24 7 13 1018.7 1014.0 0.0
22/11:00am 33.5 27.6 -1.0 11 17.1 SW 20 28 11 15 1018.9 1014.2 0.0
22/10:30am 32.5 27.1 -1.7 11 16.7 S 17 26 9 14 1019.3 1014.7 0.0
22/10:00am 32.1 25.3 -2.0 11 16.5 SW 24 33 13 18 1019.4 1014.8 0.0
22/09:30am 31.7 25.0 -1.2 12 16.1 WSW 24 33 13 18 1019.6 1015.0 0.0
22/09:00am 30.8 23.8 -0.8 13 15.4 WSW 26 32 14 17 1019.6 1015.0 0.0
22/08:30am 28.7 23.3 1.3 17 13.7 WSW 19 24 10 13 1020.2 1015.5 0.0
22/08:00am 27.5 22.6 1.8 19 12.8 W 17 20 9 11 1020.2 1015.5 0.0
22/07:30am 25.2 20.6 1.3 21 11.7 WSW 15 17 8 9 1020.1 1015.4 0.0
22/07:00am 23.6 20.1 1.3 23 10.8 WSW 9 11 5 6 1020.0 1015.3 0.0
22/06:30am 21.3 18.2 -0.1 24 9.9 W 6 7 3 4 1020.1 1015.4 0.0
22/06:00am 18.2 15.5 -2.7 24 8.9 W 2 7 1 4 1019.8 1015.1 0.0
22/05:30am 16.5 13.2 -4.7 23 8.6 W 4 7 2 4 1019.5 1014.9 0.0
22/05:00am 18.3 14.4 -4.4 21 9.4 W 7 9 4 5 1019.2 1014.5 0.0
22/04:30am 17.5 13.8 -5.0 21 9.1 W 6 6 3 3 1018.9 1014.2 0.0
22/04:00am 16.8 12.4 -5.6 21 8.9 W 9 11 5 6 1018.7 1014.0 0.0
22/03:30am 17.7 13.7 -5.5 20 9.3 W 7 9 4 5 1018.4 1013.7 0.0
22/03:00am 17.0 14.3 -5.5 21 9.0 CALM 0 0 0 0 1018.5 1013.8 0.0
22/02:30am 18.0 14.2 -5.9 19 9.6 W 6 7 3 4 1018.6 1013.9 0.0
22/02:00am 19.4 15.3 -6.2 17 10.3 W 7 9 4 5 1018.7 1014.0 0.0
22/01:30am 19.6 15.6 -6.1 17 10.4 W 7 9 4 5 1018.8 1014.1 0.0
22/01:00am 19.0 16.3 -5.8 18 10.0 CALM 0 0 0 0 1019.0 1014.3 0.0
22/12:30am 19.4 16.7 -5.5 18 10.2 CALM 0 0 0 0 1019.1 1014.4 0.0
22/12:00am 19.7 15.9 -5.3 18 10.3 W 6 6 3 3 1019.1 1014.4 0.0
 
Date/Time
WST
Temp
°C
App
Temp
°C
Dew
Point
Rel
Hum
%
Delta-T
°C
Wind Press
QNH
hPa
Press
MSL
hPa
Rain
since 9 am
mm
Dir
 
Spd
km/h
Gust
km/h
Spd
kts
Gust
kts
21/11:30pm 21.5 17.7 -5.3 16 11.2 W 6 7 3 4 1019.2 1014.5 0.0
21/11:00pm 22.7 18.0 -5.2 15 11.8 WSW 11 13 6 7 1019.5 1014.9 0.0
21/10:30pm 23.5 19.5 -5.5 14 12.3 SW 7 13 4 7 1019.8 1015.1 0.0
21/10:00pm 25.0 20.3 -5.3 13 13.1 SSE 11 13 6 7 1019.8 1015.1 0.0
21/09:30pm 25.2 20.8 -6.2 12 13.4 ESE 9 13 5 7 1019.6 1015.0 0.0
21/09:00pm 23.5 19.6 -6.5 13 12.5 SSE 6 13 3 7 1019.1 1014.4 0.0
21/08:30pm 25.4 21.4 -6.0 12 13.4 W 7 11 4 6 1018.8 1014.1 0.0
21/08:00pm 27.0 23.0 -7.2 10 14.5 W 6 9 3 5 1018.6 1013.9 0.0
21/07:30pm 27.5 24.0 -6.8 10 14.7 W 4 6 2 3 1018.3 1013.6 0.0
21/07:00pm 29.6 25.1 -6.6 9 15.9 W 9 11 5 6 1017.9 1013.3 0.0
21/06:30pm 30.9 26.4 -7.1 8 16.7 WNW 9 11 5 6 1017.4 1012.7 0.0
21/06:00pm 33.2 27.9 -7.2 7 18.1 WNW 13 20 7 11 1017.0 1012.3 0.0
21/05:30pm 34.2 29.0 -6.5 7 18.6 WNW 13 26 7 14 1016.7 1012.0 0.0
21/05:00pm 34.8 28.5 -6.0 7 18.8 W 19 32 10 17 1016.5 1011.8 0.0
21/04:30pm 34.8 30.4 -6.0 7 18.9 WNW 9 17 5 9 1016.5 1011.8 0.0
21/04:00pm 35.5 30.6 -7.5 6 19.5 N 11 24 6 13 1016.5 1011.8 0.0
21/03:30pm 34.3 30.2 -6.4 7 18.6 WSW 7 17 4 9 1016.7 1012.0 0.0
21/03:00pm 34.9 30.5 -6.0 7 18.9 WSW 9 15 5 8 1016.9 1012.2 0.0
21/02:30pm 34.7 29.5 -6.1 7 18.8 WNW 13 20 7 11 1017.2 1012.5 0.0
21/02:00pm 34.6 29.6 -4.4 8 18.4 W 13 28 7 15 1017.5 1012.8 0.0
21/01:30pm 33.3 28.4 -3.8 9 17.6 WSW 13 20 7 11 1017.9 1013.3 0.0
21/01:00pm 33.6 28.3 -3.6 9 17.7 NNE 15 37 8 20 1018.4 1013.7 0.0
21/12:30pm 32.6 26.0 -2.9 10 17.0 N 22 30 12 16 1019.2 1014.5 0.0
21/12:00pm 32.2 26.6 -3.2 10 16.8 N 17 28 9 15 1019.8 1015.1 0.0
21/11:30am 31.9 27.1 -2.2 11 16.4 N 13 20 7 11 1020.2 1015.5 0.0
21/11:00am 30.8 25.9 -3.0 11 15.9 WNW 13 19 7 10 1020.6 1016.0 0.0
21/10:30am 31.2 24.5 -4.0 10 16.4 N 22 30 12 16 1020.9 1016.3 0.0
21/10:00am 31.4 26.6 -2.6 11 16.2 N 13 24 7 13 1021.1 1016.5 0.0
21/09:30am 30.2 25.3 -0.2 14 15.0 ESE 15 24 8 13 1021.3 1016.6 0.0
21/09:00am 28.2 22.6 0.0 16 13.7 ENE 19 24 10 13 1021.5 1016.8 1.2
21/08:30am 27.2 20.8 0.8 18 13.0 ENE 24 33 13 18 1021.5 1016.8 1.2
21/08:00am 26.6 21.2 1.1 19 12.5 ENE 19 28 10 15 1021.6 1016.9 1.2
21/07:59am 26.8 21.2 1.3 19 12.6 ENE 20 28 11 15 1021.6 1016.9 1.2
21/07:30am 21.8 19.4 -2.8 19 10.8 CALM 0 0 0 0 1021.4 1016.7 1.2
21/07:00am 18.6 15.0 -3.5 22 9.3 E 6 7 3 4 1021.1 1016.5 1.2
21/06:30am 15.7 13.1 -4.8 24 8.2 CALM 0 0 0 0 1020.7 1016.1 1.2
21/06:00am 12.3 9.7 -5.2 29 6.7 CALM 0 0 0 0 1020.4 1015.7 1.2
21/05:30am 10.8 8.2 -5.2 32 6.0 CALM 0 0 0 0 1020.0 1015.3 1.2
21/05:00am 11.4 8.8 -4.7 32 6.1 CALM 0 0 0 0 1019.6 1015.0 1.2
21/04:30am 11.7 9.1 -5.3 30 6.4 CALM 0 0 0 0 1019.4 1014.8 1.2
21/04:00am 12.2 9.6 -4.8 30 6.5 CALM 0 0 0 0 1019.3 1014.7 1.2
21/03:30am 13.2 10.2 -4.9 28 7.0 E 2 7 1 4 1019.0 1014.3 1.2
21/03:00am 12.9 9.5 -5.6 27 7.0 E 4 6 2 3 1018.8 1014.1 1.2
21/02:30am 14.0 10.2 -5.7 25 7.6 E 6 11 3 6 1018.6 1013.9 1.2
21/02:00am 14.3 10.4 -4.4 27 7.4 E 7 9 4 5 1018.7 1014.0 1.2
21/01:30am 15.7 12.0 -4.8 24 8.2 E 6 9 3 5 1018.7 1014.0 1.2
21/01:00am 16.4 12.7 -4.8 23 8.5 E 6 13 3 7 1018.9 1014.2 1.2
21/12:30am 17.6 13.3 -5.0 21 9.2 E 9 11 5 6 1019.0 1014.3 1.2
21/12:00am 17.6 12.9 -5.0 21 9.1 E 11 13 6 7 1019.1 1014.4 1.2
 
Date/Time
WST
Temp
°C
App
Temp
°C
Dew
Point
Rel
Hum
%
Delta-T
°C
Wind Press
QNH
hPa
Press
MSL
hPa
Rain
since 9 am
mm
Dir
 
Spd
km/h
Gust
km/h
Spd
kts
Gust
kts
20/11:30pm 17.9 13.5 -6.0 19 9.5 SSW 9 11 5 6 1019.2 1014.5 1.2
20/11:00pm 18.2 14.3 -6.5 18 9.8 SSW 6 7 3 4 1019.3 1014.7 1.2
20/10:30pm 20.4 15.9 -7.1 15 11.0 SSW 9 9 5 5 1019.5 1014.9 1.2
20/10:00pm 20.4 15.9 -7.1 15 11.0 SSW 9 9 5 5 1019.5 1014.9 1.2
20/09:30pm 20.6 17.4 -6.9 15 11.1 SSW 2 6 1 3 1019.3 1014.7 1.2
20/09:00pm 21.7 18.8 -7.9 13 11.8 CALM 0 0 0 0 1019.0 1014.3 1.2
20/08:30pm 23.0 18.3 -9.0 11 12.7 SSW 9 11 5 6 1018.6 1013.9 1.2
20/08:00pm 23.3 19.5 -10.0 10 12.9 SSW 4 6 2 3 1018.4 1013.7 1.2
20/07:30pm 26.1 20.9 -10.7 8 14.6 SW 11 13 6 7 1017.8 1013.1 1.2
20/07:00pm 28.1 22.9 -10.9 7 15.7 WSW 11 13 6 7 1017.2 1012.5 1.2
20/06:30pm 29.2 24.0 -10.1 7 16.2 W 11 15 6 8 1016.7 1012.0 1.2
20/06:00pm 31.3 25.4 -10.5 6 17.4 WNW 15 20 8 11 1016.2 1011.5 1.2
20/05:30pm 32.3 25.7 -9.8 6 17.9 WNW 19 28 10 15 1015.9 1011.2 1.2

Other Formats:

Comma delimited format used in spreadsheet applications
http://www.bom.gov.au/fwo/IDW60801/IDW60801.99312.axf

JavaScript Object Notation format (JSON) in row-major order
http://www.bom.gov.au/fwo/IDW60801/IDW60801.99312.json